Time;durP1;ratioP1;P1;durP2;ratioP2;P2;SDS_P1;SDS_P2;PMS_P1;PMS_P2;Temp;Humidity;BMP_temperature;BMP_pressure;BME280_temperature;BME280_humidity;BME280_pressure;Samples;Min_cycle;Max_cycle;Signal;HPM_P1;HPM_P2
2022/06/10 00:02:05;;;;;;;;;;;12.70;99.90;;;;;;5069594;28;19924;-65
2022/06/10 00:04:32;;;;;;;;;;;12.80;99.90;;;;;;5069352;28;19925;-64
2022/06/10 00:07:01;;;;;;;;;;;12.70;99.90;;;;;;5069685;28;19924;-65
2022/06/10 00:09:28;;;;;;;;;;;12.80;99.90;;;;;;5069717;28;19936;-65
2022/06/10 00:11:54;;;;;;;;;;;12.70;99.90;;;;;;5070028;28;19928;-65
2022/06/10 00:14:21;;;;;;;;;;;12.70;99.90;;;;;;5069566;28;20384;-64
2022/06/10 00:16:48;;;;;;;;;;;12.70;99.90;;;;;;5069633;28;19924;-66
2022/06/10 00:19:15;;;;;;;;;;;12.60;99.90;;;;;;5069046;28;19924;-65
2022/06/10 00:21:41;;;;;;;;;;;12.60;99.90;;;;;;5068905;28;19931;-65
2022/06/10 00:24:10;;;;;;;;;;;12.50;99.90;;;;;;5069468;28;19925;-65
2022/06/10 00:26:37;;;;;;;;;;;12.50;99.90;;;;;;5069282;28;19970;-65
2022/06/10 00:29:04;;;;;;;;;;;12.50;99.90;;;;;;5069477;28;19924;-65
2022/06/10 00:31:31;;;;;;;;;;;12.60;99.90;;;;;;5069171;28;19982;-65
2022/06/10 00:33:57;;;;;;;;;;;12.60;99.90;;;;;;5068838;28;19931;-64
2022/06/10 00:36:24;;;;;;;;;;;12.60;99.90;;;;;;5069512;28;19931;-65
2022/06/10 00:38:51;;;;;;;;;;;12.60;99.90;;;;;;5069024;28;19932;-64
2022/06/10 00:41:19;;;;;;;;;;;12.60;99.90;;;;;;5069309;28;20296;-65
2022/06/10 00:43:46;;;;;;;;;;;12.70;99.90;;;;;;5069461;28;19924;-64
2022/06/10 00:46:20;;;;;;;;;;;12.60;99.90;;;;;;5068974;28;20303;-65
2022/06/10 00:48:48;;;;;;;;;;;12.50;99.90;;;;;;5069045;28;19924;-65
2022/06/10 00:51:19;;;;;;;;;;;12.50;99.90;;;;;;5069265;28;19951;-65
2022/06/10 00:53:48;;;;;;;;;;;12.50;99.90;;;;;;5069267;28;19960;-65
2022/06/10 00:56:17;;;;;;;;;;;12.40;99.90;;;;;;5067328;28;19931;-65
2022/06/10 00:58:48;;;;;;;;;;;12.40;99.90;;;;;;5069144;28;19924;-64
2022/06/10 01:01:16;;;;;;;;;;;12.40;99.90;;;;;;5069218;28;19932;-65
2022/06/10 01:03:43;;;;;;;;;;;12.40;99.90;;;;;;5069055;28;19934;-65
2022/06/10 01:06:11;;;;;;;;;;;12.40;99.90;;;;;;5069067;28;19933;-65
2022/06/10 01:08:38;;;;;;;;;;;12.30;99.90;;;;;;5069195;28;20460;-64
2022/06/10 01:11:14;;;;;;;;;;;12.30;99.90;;;;;;5068704;28;20019;-66
2022/06/10 01:13:48;;;;;;;;;;;12.30;99.90;;;;;;5068610;28;19943;-65
2022/06/10 01:16:19;;;;;;;;;;;12.20;99.90;;;;;;5069097;28;19932;-65
2022/06/10 01:18:53;;;;;;;;;;;12.20;99.90;;;;;;5069314;28;20001;-65
2022/06/10 01:21:31;;;;;;;;;;;12.20;99.90;;;;;;5069224;28;19925;-65
2022/06/10 01:24:15;;;;;;;;;;;12.20;99.90;;;;;;5068517;28;19959;-65
2022/06/10 01:30:01;;;;;;;;;;;12.10;99.90;;;;;;5064185;28;20300;-65
2022/06/10 01:32:33;;;;;;;;;;;12.10;99.90;;;;;;5062501;28;19982;-65
2022/06/10 01:35:06;;;;;;;;;;;12.00;99.90;;;;;;5072353;28;19960;-65
2022/06/10 01:37:37;;;;;;;;;;;12.00;99.90;;;;;;5072668;28;19959;-65
2022/06/10 01:40:06;;;;;;;;;;;12.00;99.90;;;;;;5072318;28;19982;-65
2022/06/10 01:42:37;;;;;;;;;;;11.90;99.90;;;;;;5068455;28;20027;-65
2022/06/10 01:45:14;;;;;;;;;;;12.00;99.90;;;;;;5068265;28;19924;-65
2022/06/10 01:47:44;;;;;;;;;;;12.00;99.90;;;;;;5072392;28;20350;-64
2022/06/10 01:50:13;;;;;;;;;;;12.00;99.90;;;;;;5072023;28;20366;-65
2022/06/10 01:52:43;;;;;;;;;;;12.00;99.90;;;;;;5072285;28;19925;-65
2022/06/10 01:55:13;;;;;;;;;;;12.00;99.90;;;;;;5072089;28;19925;-65
2022/06/10 01:57:42;;;;;;;;;;;11.90;99.90;;;;;;5072138;28;19928;-66
2022/06/10 02:00:11;;;;;;;;;;;11.90;99.90;;;;;;5070588;28;19925;-65
2022/06/10 02:02:40;;;;;;;;;;;11.80;99.90;;;;;;5067572;28;19924;-65
2022/06/10 02:05:11;;;;;;;;;;;11.80;99.90;;;;;;5071751;28;19974;-64
2022/06/10 02:07:41;;;;;;;;;;;11.80;99.90;;;;;;5071902;28;20342;-65
2022/06/10 02:10:10;;;;;;;;;;;11.70;99.90;;;;;;5073687;28;19925;-64
2022/06/10 02:12:39;;;;;;;;;;;11.70;99.90;;;;;;5072095;28;20373;-64
2022/06/10 02:15:08;;;;;;;;;;;11.60;99.90;;;;;;5071651;28;19970;-66
2022/06/10 02:17:37;;;;;;;;;;;11.70;99.90;;;;;;5071925;28;19943;-65
2022/06/10 02:20:05;;;;;;;;;;;11.70;99.90;;;;;;5071292;28;19931;-64
2022/06/10 02:22:37;;;;;;;;;;;11.70;99.90;;;;;;5072012;28;19989;-65
2022/06/10 02:25:07;;;;;;;;;;;11.60;99.90;;;;;;5068767;28;20295;-65
2022/06/10 02:27:35;;;;;;;;;;;11.60;99.90;;;;;;5070902;28;19924;-65
2022/06/10 02:30:05;;;;;;;;;;;11.70;99.90;;;;;;5069145;28;19928;-65
2022/06/10 02:32:32;;;;;;;;;;;11.70;99.90;;;;;;5069511;28;19928;-65
2022/06/10 02:34:59;;;;;;;;;;;11.70;99.90;;;;;;5069217;28;19928;-65
2022/06/10 02:37:29;;;;;;;;;;;11.60;99.90;;;;;;5071704;28;19931;-65
2022/06/10 02:40:02;;;;;;;;;;;11.60;99.90;;;;;;5072864;28;20388;-64
2022/06/10 02:42:34;;;;;;;;;;;11.70;99.90;;;;;;5066643;28;20425;-65
2022/06/10 02:45:04;;;;;;;;;;;11.70;99.90;;;;;;5072144;28;19928;-65
2022/06/10 02:47:40;;;;;;;;;;;11.60;99.90;;;;;;5066086;28;19932;-65
2022/06/10 02:50:07;;;;;;;;;;;11.50;99.90;;;;;;5071906;28;19940;-65
2022/06/10 02:52:35;;;;;;;;;;;11.50;99.90;;;;;;5071160;28;19931;-65
2022/06/10 02:55:04;;;;;;;;;;;11.40;99.90;;;;;;5072424;28;20353;-65
2022/06/10 03:03:02;;;;;;;;;;;11.40;99.90;;;;;;5071036;28;20379;-65
2022/06/10 03:05:31;;;;;;;;;;;11.50;99.90;;;;;;5070955;28;20342;-65
2022/06/10 03:08:04;;;;;;;;;;;11.50;99.90;;;;;;5070615;28;19974;-65
2022/06/10 03:10:38;;;;;;;;;;;11.50;99.90;;;;;;5063197;28;19980;-65
2022/06/10 03:13:10;;;;;;;;;;;11.60;99.90;;;;;;5070721;28;19925;-64
2022/06/10 03:15:51;;;;;;;;;;;11.60;99.90;;;;;;5070506;28;19931;-65
2022/06/10 03:18:25;;;;;;;;;;;11.70;99.90;;;;;;5070728;28;19970;-65
2022/06/10 03:20:58;;;;;;;;;;;11.70;99.90;;;;;;5070952;28;19929;-64
2022/06/10 03:23:29;;;;;;;;;;;11.80;99.90;;;;;;5065721;28;19924;-65
2022/06/10 03:26:00;;;;;;;;;;;11.80;99.90;;;;;;5072544;28;20027;-65
2022/06/10 03:28:31;;;;;;;;;;;11.80;99.90;;;;;;5069545;28;19924;-65
2022/06/10 03:31:03;;;;;;;;;;;11.90;99.90;;;;;;5065792;28;20369;-65
2022/06/10 03:33:31;;;;;;;;;;;12.00;99.90;;;;;;5065071;28;19931;-65
2022/06/10 03:36:02;;;;;;;;;;;12.10;99.90;;;;;;5070263;28;19924;-65
2022/06/10 03:38:29;;;;;;;;;;;12.10;99.90;;;;;;5070579;28;19932;-65
2022/06/10 03:40:57;;;;;;;;;;;12.10;99.90;;;;;;5069939;28;19925;-65
2022/06/10 03:43:26;;;;;;;;;;;12.20;99.90;;;;;;5070009;28;19936;-65
2022/06/10 03:45:56;;;;;;;;;;;12.20;99.90;;;;;;5070105;28;19924;-65
2022/06/10 03:48:24;;;;;;;;;;;12.30;99.90;;;;;;5070225;28;19925;-65
2022/06/10 03:50:51;;;;;;;;;;;12.30;99.90;;;;;;5070030;28;19924;-65
2022/06/10 03:53:20;;;;;;;;;;;12.40;99.90;;;;;;5068711;28;19932;-65
2022/06/10 03:55:47;;;;;;;;;;;12.40;99.90;;;;;;5069392;28;19929;-65
2022/06/10 03:58:14;;;;;;;;;;;12.50;99.90;;;;;;5069942;28;19974;-65
2022/06/10 04:00:43;;;;;;;;;;;12.50;99.90;;;;;;5070108;28;19928;-65
2022/06/10 04:03:10;;;;;;;;;;;12.60;99.90;;;;;;5070233;28;19925;-64
2022/06/10 04:05:37;;;;;;;;;;;12.60;99.90;;;;;;5069607;28;19928;-64
2022/06/10 04:08:04;;;;;;;;;;;12.70;99.90;;;;;;5070117;28;19928;-64
2022/06/10 04:10:31;;;;;;;;;;;12.70;99.90;;;;;;5069808;28;20334;-65
2022/06/10 04:12:58;;;;;;;;;;;12.70;99.90;;;;;;5069506;28;19928;-65
2022/06/10 04:15:27;;;;;;;;;;;12.80;99.90;;;;;;5069776;28;20335;-64
2022/06/10 04:17:56;;;;;;;;;;;12.90;99.90;;;;;;5069542;28;19932;-64
2022/06/10 04:20:25;;;;;;;;;;;13.00;99.90;;;;;;5066665;28;20178;-66
2022/06/10 04:22:51;;;;;;;;;;;13.00;99.90;;;;;;5066166;28;19932;-75
2022/06/10 04:25:18;;;;;;;;;;;13.10;99.90;;;;;;5068919;28;19931;-65
2022/06/10 04:27:46;;;;;;;;;;;13.10;99.90;;;;;;5069063;28;19940;-66
2022/06/10 04:30:18;;;;;;;;;;;13.10;99.90;;;;;;5067663;28;19930;-66
2022/06/10 04:32:45;;;;;;;;;;;13.20;99.90;;;;;;5069192;28;19928;-67
2022/06/10 04:35:13;;;;;;;;;;;13.30;99.90;;;;;;5066416;28;19932;-66
2022/06/10 04:37:40;;;;;;;;;;;13.30;99.90;;;;;;5069520;28;19924;-70
2022/06/10 04:40:07;;;;;;;;;;;13.40;99.90;;;;;;5067817;28;19928;-66
2022/06/10 04:42:34;;;;;;;;;;;13.40;99.90;;;;;;5069200;28;20019;-66
2022/06/10 04:45:01;;;;;;;;;;;13.40;99.90;;;;;;5069005;28;19936;-66
2022/06/10 04:47:28;;;;;;;;;;;13.40;99.90;;;;;;5069273;28;19931;-66
2022/06/10 04:49:59;;;;;;;;;;;13.50;99.90;;;;;;5062042;28;20019;-66
2022/06/10 04:52:28;;;;;;;;;;;13.50;99.90;;;;;;5069188;28;20023;-66
2022/06/10 04:54:55;;;;;;;;;;;13.60;99.90;;;;;;5068835;28;19924;-67
2022/06/10 04:57:22;;;;;;;;;;;13.60;99.90;;;;;;5067015;28;19933;-66
2022/06/10 04:59:49;;;;;;;;;;;13.70;99.90;;;;;;5064968;28;20358;-66
2022/06/10 05:02:16;;;;;;;;;;;13.70;99.90;;;;;;5063965;28;19940;-67
2022/06/10 05:04:42;;;;;;;;;;;13.80;99.90;;;;;;5066110;28;19932;-66
2022/06/10 05:07:09;;;;;;;;;;;13.80;99.90;;;;;;5066568;28;20334;-66
2022/06/10 05:09:37;;;;;;;;;;;13.80;99.90;;;;;;5068775;28;19932;-66
2022/06/10 05:12:04;;;;;;;;;;;13.90;99.90;;;;;;5068838;28;19929;-67
2022/06/10 05:14:31;;;;;;;;;;;13.90;99.90;;;;;;5070108;28;19925;-66
2022/06/10 05:16:58;;;;;;;;;;;14.00;99.90;;;;;;5069607;28;19982;-67
2022/06/10 05:19:25;;;;;;;;;;;14.10;99.90;;;;;;5072333;28;19931;-67
2022/06/10 05:21:52;;;;;;;;;;;14.20;99.90;;;;;;5071198;28;19932;-66
2022/06/10 05:24:19;;;;;;;;;;;14.30;99.90;;;;;;5068333;28;19962;-67
2022/06/10 05:26:47;;;;;;;;;;;14.30;99.90;;;;;;5063883;28;19964;-67
2022/06/10 05:29:14;;;;;;;;;;;14.40;99.90;;;;;;5065580;28;19994;-70
2022/06/10 05:31:40;;;;;;;;;;;14.50;99.90;;;;;;5072715;28;19936;-66
2022/06/10 05:36:51;;;;;;;;;;;14.60;99.90;;;;;;5069687;28;19928;-67
2022/06/10 05:39:18;;;;;;;;;;;14.70;99.90;;;;;;5071925;28;19974;-67
2022/06/10 05:44:31;;;;;;;;;;;14.90;99.90;;;;;;5068420;28;19933;-66
2022/06/10 05:47:00;;;;;;;;;;;14.90;99.90;;;;;;5072296;28;20346;-67
2022/06/10 05:49:28;;;;;;;;;;;15.00;99.90;;;;;;5072037;28;19930;-67
2022/06/10 05:51:55;;;;;;;;;;;15.10;99.90;;;;;;5072078;28;19931;-67
2022/06/10 05:54:22;;;;;;;;;;;15.20;99.90;;;;;;5072156;28;19935;-68
2022/06/10 05:56:50;;;;;;;;;;;15.30;99.90;;;;;;5072458;28;19925;-67
2022/06/10 05:59:18;;;;;;;;;;;15.40;99.90;;;;;;5064862;28;20403;-67
2022/06/10 06:01:46;;;;;;;;;;;15.50;99.90;;;;;;5069296;28;19924;-68
2022/06/10 06:04:12;;;;;;;;;;;15.60;99.90;;;;;;5071288;28;19924;-68
2022/06/10 06:06:40;;;;;;;;;;;15.70;99.90;;;;;;5071808;28;19925;-68
2022/06/10 06:09:07;;;;;;;;;;;15.70;99.90;;;;;;5071420;28;19978;-76
2022/06/10 06:11:34;;;;;;;;;;;15.80;99.90;;;;;;5072287;28;19952;-67
2022/06/10 06:14:02;;;;;;;;;;;15.90;99.90;;;;;;5071890;28;19974;-66
2022/06/10 06:16:29;;;;;;;;;;;15.90;99.90;;;;;;5062358;28;19948;-67
2022/06/10 06:18:55;;;;;;;;;;;16.00;99.90;;;;;;5066949;28;19924;-67
2022/06/10 06:21:22;;;;;;;;;;;16.10;99.90;;;;;;5066852;28;19969;-67
2022/06/10 06:23:49;;;;;;;;;;;16.30;99.90;;;;;;5070863;28;19925;-66
2022/06/10 06:26:16;;;;;;;;;;;16.50;99.90;;;;;;5071929;28;19928;-67
2022/06/10 06:28:43;;;;;;;;;;;16.70;99.90;;;;;;5072170;28;19924;-67
2022/06/10 06:31:11;;;;;;;;;;;16.80;99.90;;;;;;5071714;28;19932;-67
2022/06/10 06:33:38;;;;;;;;;;;16.80;99.90;;;;;;5071451;28;19929;-67
2022/06/10 06:36:06;;;;;;;;;;;16.90;99.90;;;;;;5071443;28;20010;-67
2022/06/10 06:38:32;;;;;;;;;;;16.90;99.90;;;;;;5071525;28;19974;-66
2022/06/10 06:40:59;;;;;;;;;;;16.90;99.90;;;;;;5070451;28;19925;-67
2022/06/10 06:43:26;;;;;;;;;;;16.90;99.90;;;;;;5071584;28;19932;-67
2022/06/10 06:45:53;;;;;;;;;;;17.00;99.90;;;;;;5071403;28;19928;-67
2022/06/10 06:48:21;;;;;;;;;;;17.20;99.90;;;;;;5071526;28;19924;-67
2022/06/10 06:50:49;;;;;;;;;;;17.40;99.90;;;;;;5071403;28;19925;-67
2022/06/10 06:53:17;;;;;;;;;;;17.60;99.90;;;;;;5071401;28;19925;-67
2022/06/10 06:55:44;;;;;;;;;;;17.80;99.90;;;;;;5071248;28;19929;-67
2022/06/10 06:58:13;;;;;;;;;;;17.90;99.90;;;;;;5066148;28;19970;-68
2022/06/10 07:00:40;;;;;;;;;;;17.90;99.90;;;;;;5071607;28;19925;-67
2022/06/10 07:03:07;;;;;;;;;;;18.00;99.90;;;;;;5071034;28;19987;-67
2022/06/10 07:05:36;;;;;;;;;;;18.00;99.90;;;;;;5077433;28;19925;-66
2022/06/10 07:08:03;;;;;;;;;;;18.10;99.90;;;;;;5071187;28;20007;-67
2022/06/10 07:10:30;;;;;;;;;;;18.20;99.90;;;;;;5070954;28;19924;-67
2022/06/10 07:12:57;;;;;;;;;;;18.30;99.90;;;;;;5070993;28;19932;-67
2022/06/10 07:15:24;;;;;;;;;;;18.40;99.90;;;;;;5070523;28;20466;-67
2022/06/10 07:17:50;;;;;;;;;;;18.50;99.90;;;;;;5069468;28;19924;-67
2022/06/10 07:20:19;;;;;;;;;;;18.50;99.90;;;;;;5070496;28;19950;-67
2022/06/10 07:22:48;;;;;;;;;;;18.70;99.90;;;;;;5069959;28;19928;-67
2022/06/10 07:25:15;;;;;;;;;;;19.00;99.90;;;;;;5070258;28;19985;-67
2022/06/10 07:27:42;;;;;;;;;;;19.10;99.90;;;;;;5071148;28;20372;-67
2022/06/10 07:30:10;;;;;;;;;;;18.90;99.90;;;;;;5070603;28;20414;-67
2022/06/10 07:32:37;;;;;;;;;;;18.90;99.90;;;;;;5070934;28;19924;-67
2022/06/10 07:35:04;;;;;;;;;;;18.90;99.90;;;;;;5070481;28;19924;-67
2022/06/10 07:37:31;;;;;;;;;;;18.90;99.90;;;;;;5070480;28;19924;-67
2022/06/10 07:39:59;;;;;;;;;;;18.90;99.90;;;;;;5066422;28;19925;-67
2022/06/10 07:42:25;;;;;;;;;;;19.00;99.90;;;;;;5070988;28;19932;-67
2022/06/10 07:44:54;;;;;;;;;;;19.10;99.90;;;;;;5070622;28;19921;-67
2022/06/10 07:47:21;;;;;;;;;;;18.90;99.90;;;;;;5058221;28;19924;-67
2022/06/10 07:49:48;;;;;;;;;;;19.00;99.90;;;;;;5070555;28;19973;-67
2022/06/10 07:52:15;;;;;;;;;;;18.70;99.90;;;;;;5069986;28;20001;-67
2022/06/10 07:54:42;;;;;;;;;;;18.60;99.90;;;;;;5069968;28;20411;-67
2022/06/10 07:57:11;;;;;;;;;;;18.50;99.90;;;;;;5070294;28;19928;-67
2022/06/10 07:59:42;;;;;;;;;;;18.50;99.90;;;;;;5070098;28;19928;-66
2022/06/10 08:02:09;;;;;;;;;;;18.20;99.90;;;;;;5068705;28;19974;-67
2022/06/10 08:04:35;;;;;;;;;;;18.30;99.90;;;;;;5069704;28;19925;-67
2022/06/10 08:07:02;;;;;;;;;;;18.10;99.90;;;;;;5069754;28;19950;-67
2022/06/10 08:09:29;;;;;;;;;;;18.10;99.90;;;;;;5069961;28;20354;-67
2022/06/10 08:11:56;;;;;;;;;;;18.10;99.90;;;;;;5070061;28;19932;-67
2022/06/10 08:14:25;;;;;;;;;;;18.10;99.90;;;;;;5069836;28;19924;-66
2022/06/10 08:16:53;;;;;;;;;;;18.20;99.90;;;;;;5069189;28;19925;-67
2022/06/10 08:19:20;;;;;;;;;;;18.20;99.90;;;;;;5068442;28;20453;-67
2022/06/10 08:24:31;;;;;;;;;;;18.30;99.90;;;;;;5063190;28;19920;-67
2022/06/10 08:26:58;;;;;;;;;;;18.60;99.90;;;;;;5068674;28;19932;-67
2022/06/10 08:29:27;;;;;;;;;;;18.60;99.90;;;;;;5062955;28;19932;-67
2022/06/10 08:31:53;;;;;;;;;;;18.60;99.90;;;;;;5069664;28;20007;-66
2022/06/10 08:34:20;;;;;;;;;;;18.70;99.90;;;;;;5067854;28;19925;-67
2022/06/10 08:36:47;;;;;;;;;;;18.70;99.90;;;;;;5069431;28;19939;-66
2022/06/10 08:39:14;;;;;;;;;;;18.70;99.90;;;;;;5063252;28;19925;-66
2022/06/10 08:41:56;;;;;;;;;;;18.70;99.90;;;;;;5069515;28;19932;-66
2022/06/10 08:44:29;;;;;;;;;;;18.60;99.90;;;;;;5068393;28;19936;-66
2022/06/10 08:47:18;;;;;;;;;;;18.50;99.90;;;;;;5062149;28;19935;-66
2022/06/10 08:49:50;;;;;;;;;;;18.60;99.90;;;;;;5063015;28;19924;-67
2022/06/10 08:52:25;;;;;;;;;;;18.50;99.90;;;;;;5068816;28;20342;-67
2022/06/10 08:54:56;;;;;;;;;;;18.60;99.90;;;;;;5066549;28;19925;-66
2022/06/10 08:57:27;;;;;;;;;;;18.50;99.90;;;;;;5063411;28;19929;-66
2022/06/10 08:59:56;;;;;;;;;;;18.60;99.90;;;;;;5067778;28;19925;-67
2022/06/10 09:02:27;;;;;;;;;;;18.50;99.90;;;;;;5069149;28;19924;-67
2022/06/10 09:04:55;;;;;;;;;;;18.50;99.90;;;;;;5067795;28;19924;-67
2022/06/10 09:07:25;;;;;;;;;;;18.70;99.90;;;;;;5066703;28;19970;-67
2022/06/10 09:09:53;;;;;;;;;;;18.80;99.90;;;;;;5068743;28;19936;-67
2022/06/10 09:12:23;;;;;;;;;;;18.80;99.90;;;;;;5059596;28;20031;-68
2022/06/10 09:14:51;;;;;;;;;;;18.70;99.90;;;;;;5059411;28;19924;-67
2022/06/10 09:17:20;;;;;;;;;;;18.90;99.90;;;;;;5065748;28;19936;-67
2022/06/10 09:19:51;;;;;;;;;;;19.10;99.90;;;;;;5063900;28;19935;-67
2022/06/10 09:22:22;;;;;;;;;;;19.20;99.90;;;;;;5062112;28;19933;-67
2022/06/10 09:24:51;;;;;;;;;;;19.40;99.90;;;;;;5068698;28;19964;-67
2022/06/10 09:27:23;;;;;;;;;;;19.50;99.90;;;;;;5067979;28;20175;-67
2022/06/10 09:29:50;;;;;;;;;;;19.50;99.90;;;;;;5065961;28;20027;-67
2022/06/10 09:32:23;;;;;;;;;;;19.70;99.90;;;;;;5067439;28;19970;-68
2022/06/10 09:34:53;;;;;;;;;;;19.70;99.90;;;;;;5067105;28;19932;-67
2022/06/10 09:37:25;;;;;;;;;;;19.80;99.90;;;;;;5063547;28;19925;-67
2022/06/10 09:42:43;;;;;;;;;;;20.10;99.90;;;;;;5066413;28;20031;-67
2022/06/10 09:45:16;;;;;;;;;;;20.40;99.90;;;;;;5065129;28;19928;-67
2022/06/10 09:47:55;;;;;;;;;;;20.60;99.90;;;;;;5067577;28;19926;-67
2022/06/10 09:50:26;;;;;;;;;;;20.50;99.90;;;;;;5063938;28;19931;-67
2022/06/10 09:53:11;;;;;;;;;;;20.80;99.90;;;;;;5066331;28;20112;-68
2022/06/10 09:55:47;;;;;;;;;;;21.00;99.90;;;;;;5064162;28;20022;-67
2022/06/10 09:58:30;;;;;;;;;;;21.20;99.90;;;;;;5068329;28;19924;-67
2022/06/10 10:00:59;;;;;;;;;;;21.20;99.90;;;;;;5069086;28;19929;-67
2022/06/10 10:03:45;;;;;;;;;;;21.30;99.90;;;;;;5067382;28;19932;-66
2022/06/10 10:06:21;;;;;;;;;;;21.50;99.90;;;;;;5072437;28;19924;-67
2022/06/10 10:08:57;;;;;;;;;;;21.60;99.90;;;;;;5071565;28;19932;-68
2022/06/10 10:11:27;;;;;;;;;;;21.80;99.90;;;;;;5068401;28;19933;-67
2022/06/10 10:13:59;;;;;;;;;;;21.90;99.90;;;;;;5071651;28;19932;-68
2022/06/10 10:16:28;;;;;;;;;;;22.40;99.90;;;;;;5069302;28;20308;-67
2022/06/10 10:19:10;;;;;;;;;;;22.40;99.90;;;;;;5065335;28;19924;-67
2022/06/10 10:21:43;;;;;;;;;;;22.50;99.90;;;;;;5062349;28;20323;-67
2022/06/10 10:24:14;;;;;;;;;;;22.60;99.90;;;;;;5071718;28;19932;-67
2022/06/10 10:26:44;;;;;;;;;;;22.70;99.90;;;;;;5059147;28;19931;-67
2022/06/10 10:29:13;;;;;;;;;;;22.60;99.90;;;;;;5070021;28;19925;-67
2022/06/10 10:31:44;;;;;;;;;;;22.20;99.90;;;;;;5070306;28;19925;-68
2022/06/10 10:34:15;;;;;;;;;;;22.00;99.90;;;;;;5064431;28;20362;-68
2022/06/10 10:36:48;;;;;;;;;;;22.00;99.90;;;;;;5066227;28;20170;-68
2022/06/10 10:39:18;;;;;;;;;;;21.80;99.90;;;;;;5071023;28;19924;-68
2022/06/10 10:41:46;;;;;;;;;;;21.90;99.90;;;;;;5071227;28;19978;-67
2022/06/10 10:44:24;;;;;;;;;;;22.00;99.90;;;;;;5062853;28;19932;-68
2022/06/10 10:46:58;;;;;;;;;;;22.20;99.90;;;;;;5070629;28;19925;-67
2022/06/10 10:49:27;;;;;;;;;;;22.40;99.90;;;;;;5070566;28;19928;-68
2022/06/10 10:51:56;;;;;;;;;;;22.80;99.90;;;;;;5062417;28;19986;-68
2022/06/10 10:54:25;;;;;;;;;;;22.80;99.90;;;;;;5066312;28;20392;-67
2022/06/10 10:56:52;;;;;;;;;;;22.90;99.90;;;;;;5070778;28;19924;-67
2022/06/10 10:59:22;;;;;;;;;;;23.40;99.90;;;;;;5068993;28;19928;-67
2022/06/10 11:01:51;;;;;;;;;;;23.10;99.90;;;;;;5070608;28;19977;-67
2022/06/10 11:04:25;;;;;;;;;;;23.30;99.90;;;;;;5070175;28;20011;-67
2022/06/10 11:07:00;;;;;;;;;;;23.30;99.90;;;;;;5069804;28;19951;-67
2022/06/10 11:09:27;;;;;;;;;;;23.10;99.90;;;;;;5064737;28;19928;-67
2022/06/10 11:11:56;;;;;;;;;;;23.60;99.90;;;;;;5069700;28;19940;-67
2022/06/10 11:14:25;;;;;;;;;;;23.20;99.90;;;;;;5070027;28;19932;-67
2022/06/10 11:16:58;;;;;;;;;;;23.00;99.90;;;;;;5070775;28;19931;-67
2022/06/10 11:19:26;;;;;;;;;;;23.00;99.90;;;;;;5065596;28;19986;-67
2022/06/10 11:21:55;;;;;;;;;;;23.30;99.90;;;;;;5064349;28;19932;-68
2022/06/10 11:24:28;;;;;;;;;;;23.20;99.90;;;;;;5067001;28;19925;-68
2022/06/10 11:26:57;;;;;;;;;;;23.70;99.90;;;;;;5064205;28;19934;-68
2022/06/10 11:29:23;;;;;;;;;;;23.80;99.90;;;;;;5070752;28;19932;-67
2022/06/10 11:31:53;;;;;;;;;;;23.90;99.90;;;;;;5071664;28;19931;-69
2022/06/10 11:34:22;;;;;;;;;;;24.50;99.90;;;;;;5071249;28;19964;-68
2022/06/10 11:36:50;;;;;;;;;;;24.80;99.90;;;;;;5071734;28;19928;-68
2022/06/10 11:39:18;;;;;;;;;;;25.10;99.90;;;;;;5062360;28;19929;-67
2022/06/10 11:41:58;;;;;;;;;;;24.70;99.90;;;;;;5066805;28;19924;-69
2022/06/10 11:44:26;;;;;;;;;;;24.60;99.90;;;;;;5067332;28;20383;-68
2022/06/10 11:46:58;;;;;;;;;;;24.20;99.90;;;;;;5066655;28;19928;-68
2022/06/10 11:52:58;;;;;;;;;;;24.70;99.90;;;;;;5066263;28;20445;-69
2022/06/10 11:55:27;;;;;;;;;;;25.00;99.90;;;;;;5069640;28;20324;-71
2022/06/10 12:00:45;;;;;;;;;;;25.20;99.90;;;;;;5064811;28;19958;-70
2022/06/10 12:03:17;;;;;;;;;;;25.70;99.90;;;;;;5069913;28;19985;-70
2022/06/10 12:05:48;;;;;;;;;;;26.10;99.90;;;;;;5069760;28;19940;-70
2022/06/10 12:08:20;;;;;;;;;;;26.30;99.90;;;;;;5070064;28;19924;-70
2022/06/10 12:10:52;;;;;;;;;;;26.60;99.90;;;;;;5069982;28;19978;-70
2022/06/10 12:13:21;;;;;;;;;;;27.30;99.90;;;;;;5069282;28;19928;-70
2022/06/10 12:15:49;;;;;;;;;;;27.10;99.90;;;;;;5069372;28;19924;-70
2022/06/10 12:18:17;;;;;;;;;;;27.50;99.90;;;;;;5068438;28;20344;-70
2022/06/10 12:20:46;;;;;;;;;;;27.20;99.90;;;;;;5075881;28;19932;-69
2022/06/10 12:23:14;;;;;;;;;;;27.10;99.90;;;;;;5069688;28;19924;-69
2022/06/10 12:25:49;;;;;;;;;;;26.60;99.90;;;;;;5075035;28;19978;-69
2022/06/10 12:28:22;;;;;;;;;;;26.40;99.90;;;;;;5069776;28;19932;-69
2022/06/10 12:30:58;;;;;;;;;;;26.30;99.90;;;;;;5064135;28;19936;-69
2022/06/10 12:33:28;;;;;;;;;;;26.50;99.90;;;;;;5069304;28;19928;-70
2022/06/10 12:35:56;;;;;;;;;;;27.00;99.90;;;;;;5069462;28;20346;-69
2022/06/10 12:38:24;;;;;;;;;;;27.60;99.90;;;;;;5069340;28;19924;-68
2022/06/10 12:40:54;;;;;;;;;;;27.80;99.90;;;;;;5066887;28;19974;-69
2022/06/10 12:43:22;;;;;;;;;;;28.60;99.90;;;;;;5063184;28;19925;-69
2022/06/10 12:45:51;;;;;;;;;;;29.70;99.90;;;;;;5069107;28;19932;-69
2022/06/10 12:48:20;;;;;;;;;;;30.40;99.90;;;;;;5069188;28;19925;-69
2022/06/10 12:50:55;;;;;;;;;;;30.40;99.90;;;;;;5069308;28;19931;-68
2022/06/10 12:53:31;;;;;;;;;;;29.50;99.90;;;;;;5069123;28;19932;-69
2022/06/10 12:55:59;;;;;;;;;;;29.30;99.90;;;;;;5064231;28;19928;-68
2022/06/10 12:58:40;;;;;;;;;;;30.00;99.90;;;;;;5069242;28;19929;-69
2022/06/10 13:01:13;;;;;;;;;;;29.80;99.90;;;;;;5067163;28;19947;-69
2022/06/10 13:03:40;;;;;;;;;;;31.00;99.90;;;;;;5068836;28;19982;-69
2022/06/10 13:06:26;;;;;;;;;;;30.40;99.90;;;;;;5069546;28;19931;-69
2022/06/10 13:08:54;;;;;;;;;;;30.30;99.90;;;;;;5069608;28;19931;-68
2022/06/10 13:11:31;;;;;;;;;;;30.40;99.90;;;;;;5068820;28;19929;-69
2022/06/10 13:14:16;;;;;;;;;;;29.60;99.90;;;;;;5063892;28;19931;-68
2022/06/10 13:16:47;;;;;;;;;;;28.40;99.90;;;;;;5063029;28;19932;-68
2022/06/10 13:19:29;;;;;;;;;;;28.80;99.90;;;;;;5067607;28;20419;-69
2022/06/10 13:21:56;;;;;;;;;;;29.10;99.90;;;;;;5065142;28;20023;-69
2022/06/10 13:24:23;;;;;;;;;;;28.50;99.90;;;;;;5067620;28;19987;-70
2022/06/10 13:26:51;;;;;;;;;;;27.90;99.90;;;;;;5067815;28;19978;-70
2022/06/10 13:29:20;;;;;;;;;;;28.20;99.90;;;;;;5070311;28;19929;-71
2022/06/10 13:31:49;;;;;;;;;;;28.70;99.90;;;;;;5073249;28;19924;-70
2022/06/10 13:34:20;;;;;;;;;;;28.50;99.90;;;;;;5072170;28;19936;-68
2022/06/10 13:36:51;;;;;;;;;;;28.50;99.90;;;;;;5073029;28;19928;-67
2022/06/10 13:39:23;;;;;;;;;;;29.50;99.90;;;;;;5072514;28;19931;-67
2022/06/10 13:41:52;;;;;;;;;;;29.50;99.90;;;;;;5073043;28;19932;-68
2022/06/10 13:44:23;;;;;;;;;;;29.10;99.90;;;;;;5072690;28;19924;-68
2022/06/10 13:46:52;;;;;;;;;;;29.30;99.90;;;;;;5072833;28;19928;-67
2022/06/10 13:49:42;;;;;;;;;;;29.00;99.90;;;;;;5071962;28;19931;-68
2022/06/10 13:52:17;;;;;;;;;;;28.90;99.90;;;;;;5070003;28;19981;-68
2022/06/10 13:54:44;;;;;;;;;;;30.00;99.90;;;;;;5067021;28;20476;-68
2022/06/10 13:57:17;;;;;;;;;;;31.00;99.90;;;;;;5072246;28;19928;-68
2022/06/10 13:59:44;;;;;;;;;;;32.10;99.90;;;;;;5071953;28;19924;-68
2022/06/10 14:02:16;;;;;;;;;;;30.80;99.90;;;;;;5071696;28;19924;-68
2022/06/10 14:04:44;;;;;;;;;;;29.20;99.90;;;;;;5071965;28;19936;-67
2022/06/10 14:07:13;;;;;;;;;;;28.80;99.90;;;;;;5070772;28;20310;-68
2022/06/10 14:09:40;;;;;;;;;;;28.00;99.90;;;;;;5071858;28;19929;-68
2022/06/10 14:12:12;;;;;;;;;;;27.30;99.90;;;;;;5071059;28;20388;-75
2022/06/10 14:14:41;;;;;;;;;;;27.70;99.90;;;;;;5071902;28;20121;-68
2022/06/10 14:17:15;;;;;;;;;;;28.80;99.90;;;;;;5072024;28;19925;-68
2022/06/10 14:19:46;;;;;;;;;;;29.70;99.90;;;;;;5072040;28;19978;-68
2022/06/10 14:22:17;;;;;;;;;;;29.30;99.90;;;;;;5071969;28;19924;-67
2022/06/10 14:24:44;;;;;;;;;;;29.00;99.90;;;;;;5071724;28;19924;-68
2022/06/10 14:27:17;;;;;;;;;;;28.50;99.90;;;;;;5073310;28;19941;-68
2022/06/10 14:29:44;;;;;;;;;;;29.30;99.90;;;;;;5072034;28;19929;-68
2022/06/10 14:32:19;;;;;;;;;;;29.80;99.90;;;;;;5071918;28;19952;-68
2022/06/10 14:34:48;;;;;;;;;;;30.30;99.90;;;;;;5071683;28;20361;-67
2022/06/10 14:37:30;;;;;;;;;;;30.00;99.90;;;;;;5070700;28;19928;-68
2022/06/10 14:40:12;;;;;;;;;;;30.40;99.90;;;;;;5071018;28;19925;-68
2022/06/10 14:42:40;;;;;;;;;;;30.80;99.90;;;;;;5071006;28;19925;-68
2022/06/10 14:45:22;;;;;;;;;;;29.20;99.90;;;;;;5071953;28;19924;-68
2022/06/10 14:48:04;;;;;;;;;;;29.50;99.90;;;;;;5071933;28;20354;-68
2022/06/10 14:50:32;;;;;;;;;;;29.80;99.90;;;;;;5065269;28;19928;-67
2022/06/10 14:52:59;;;;;;;;;;;29.00;99.90;;;;;;5068528;28;19924;-68
2022/06/10 14:55:29;;;;;;;;;;;29.80;99.90;;;;;;5071417;28;19974;-68
2022/06/10 14:57:57;;;;;;;;;;;29.10;99.90;;;;;;5071343;28;19971;-68